SBOSBO BCN / LEBL
Speedbird OnlineSpeedbird Online BCN / LEBL

Barcelona International Airport
22:45 20.3°C

Location Barcelona, Spain
Latitude: 41.2971
Longitude: 2.07846
Web Airport Website | Wikipedia
Altitude 4 Meter / 12 Feet
Distance 1,144 KM / 711 Miles
from London.
Time Zone UTC +2 hours (Europe/Madrid)
Codes IATA: BCN
ICAO: LEBL
Currency £1 equals EUR 1.12
Runways
RunwayLength (m)Surface
022528Asphalt
06L3352Asphalt
06R2660Asphalt
202528Asphalt
24L2660Asphalt
24R3352Asphalt
Radio
TypeDescriptionFrequency
APPAPP119.1
ATISATIS118.65
CLDCLNC DEL121.8
GNDGND121.65
TWRTWR118.1
Live ATC
METAR LEBL 242030Z 07014KT 040V100 9999 FEW028 BKN055 21/16 Q1012 NOSIG
TAF TAF LEBL 241700Z 2418/2518 07010KT 9999 FEW020 TX24/2512Z TN16/2505Z PROB40 TEMPO 2419/2424 4000 SHRA FEW030TCU PROB30 TEMPO 2419/2424 3000 TSRA FEW030CB BECMG 2422/2424 34012KT TEMPO 2422/2503 VRB04KT BECMG 2510/2512 21010KT TEMPO 2514/2518 18010KT
Weather As Of 24 Sep 2022 22:45
Description Broken clouds
Wind 26 km/h from East (70°)
Cloud Cover 75%
Precipitation Rain: none, Snow: none
Sunrise 07:40
Sunset 19:46
Lounges AENA Joan Miro Lounge , Terminal 1
AENA Colomer Lounge , Terminal 1
AENA Pau Casals Lounge, Terminal 1
Rotations During the last 90 days there were
369 flights from LHR
57 flights from LCY
1 flights from ALC
1 flights from BCN
1 flights from VLC
367 flights to LHR
49 flights to LCY
1 flights to BCN
1 flights to LGW


© 2017-2022 Speedbird Online